sensor_id;sensor_type;location;lat;lon;timestamp;pressure;altitude;pressure_sealevel;temperature;humidity
9822;BME280;4950;46.042;14.472;2023-04-22T00:02:11;97849.19;;;9.47;83.69
9822;BME280;4950;46.042;14.472;2023-04-22T00:04:38;97849.00;;;9.49;83.92
9822;BME280;4950;46.042;14.472;2023-04-22T00:07:06;97845.59;;;9.48;83.46
9822;BME280;4950;46.042;14.472;2023-04-22T00:09:32;97838.47;;;9.51;83.34
9822;BME280;4950;46.042;14.472;2023-04-22T00:11:59;97842.38;;;9.46;83.79
9822;BME280;4950;46.042;14.472;2023-04-22T00:14:26;97833.63;;;9.47;83.77
9822;BME280;4950;46.042;14.472;2023-04-22T00:16:53;97838.00;;;9.47;83.55
9822;BME280;4950;46.042;14.472;2023-04-22T00:19:21;97840.94;;;9.44;82.70
9822;BME280;4950;46.042;14.472;2023-04-22T00:21:48;97838.38;;;9.36;83.11
9822;BME280;4950;46.042;14.472;2023-04-22T00:24:15;97842.09;;;9.33;83.22
9822;BME280;4950;46.042;14.472;2023-04-22T00:26:42;97847.94;;;9.27;83.51
9822;BME280;4950;46.042;14.472;2023-04-22T00:29:08;97845.50;;;9.25;83.14
9822;BME280;4950;46.042;14.472;2023-04-22T00:31:35;97846.19;;;9.19;83.64
9822;BME280;4950;46.042;14.472;2023-04-22T00:34:02;97848.47;;;9.14;83.92
9822;BME280;4950;46.042;14.472;2023-04-22T00:36:30;97843.31;;;9.14;83.87
9822;BME280;4950;46.042;14.472;2023-04-22T00:38:56;97847.66;;;9.14;84.21
9822;BME280;4950;46.042;14.472;2023-04-22T00:41:23;97844.91;;;9.15;84.31
9822;BME280;4950;46.042;14.472;2023-04-22T00:43:50;97847.66;;;9.14;83.73
9822;BME280;4950;46.042;14.472;2023-04-22T00:46:18;97853.47;;;9.16;83.93
9822;BME280;4950;46.042;14.472;2023-04-22T00:48:45;97842.81;;;9.11;83.17
9822;BME280;4950;46.042;14.472;2023-04-22T00:51:12;97854.81;;;9.03;83.61
9822;BME280;4950;46.042;14.472;2023-04-22T00:53:40;97844.44;;;9.03;83.48
9822;BME280;4950;46.042;14.472;2023-04-22T00:56:07;97843.16;;;8.99;83.60
9822;BME280;4950;46.042;14.472;2023-04-22T00:58:33;97843.66;;;8.95;83.40
9822;BME280;4950;46.042;14.472;2023-04-22T01:01:01;97842.19;;;8.92;84.07
9822;BME280;4950;46.042;14.472;2023-04-22T01:03:28;97854.50;;;8.90;84.31
9822;BME280;4950;46.042;14.472;2023-04-22T01:05:57;97847.06;;;8.87;84.15
9822;BME280;4950;46.042;14.472;2023-04-22T01:08:27;97856.78;;;8.85;84.08
9822;BME280;4950;46.042;14.472;2023-04-22T01:10:56;97852.91;;;8.81;83.79
9822;BME280;4950;46.042;14.472;2023-04-22T01:13:23;97853.06;;;8.79;84.35
9822;BME280;4950;46.042;14.472;2023-04-22T01:15:50;97853.22;;;8.78;84.47
9822;BME280;4950;46.042;14.472;2023-04-22T01:18:18;97855.00;;;8.77;84.50
9822;BME280;4950;46.042;14.472;2023-04-22T01:20:45;97853.06;;;8.71;84.29
9822;BME280;4950;46.042;14.472;2023-04-22T01:23:16;97856.94;;;8.67;84.86
9822;BME280;4950;46.042;14.472;2023-04-22T01:25:44;97849.84;;;8.69;84.27
9822;BME280;4950;46.042;14.472;2023-04-22T01:28:11;97855.81;;;8.69;84.34
9822;BME280;4950;46.042;14.472;2023-04-22T01:30:38;97850.66;;;8.69;83.98
9822;BME280;4950;46.042;14.472;2023-04-22T01:33:06;97849.00;;;8.68;84.31
9822;BME280;4950;46.042;14.472;2023-04-22T01:35:33;97853.38;;;8.68;84.45
9822;BME280;4950;46.042;14.472;2023-04-22T01:38:01;97846.41;;;8.68;84.11
9822;BME280;4950;46.042;14.472;2023-04-22T01:40:30;97852.09;;;8.64;84.14
9822;BME280;4950;46.042;14.472;2023-04-22T01:42:57;97848.06;;;8.61;83.77
9822;BME280;4950;46.042;14.472;2023-04-22T01:45:24;97848.38;;;8.58;83.78
9822;BME280;4950;46.042;14.472;2023-04-22T01:47:51;97850.31;;;8.56;83.84
9822;BME280;4950;46.042;14.472;2023-04-22T01:50:19;97849.34;;;8.49;84.05
9822;BME280;4950;46.042;14.472;2023-04-22T01:52:45;97850.97;;;8.50;84.60
9822;BME280;4950;46.042;14.472;2023-04-22T01:55:12;97848.03;;;8.53;83.53
9822;BME280;4950;46.042;14.472;2023-04-22T01:57:41;97849.97;;;8.51;84.24
9822;BME280;4950;46.042;14.472;2023-04-22T02:00:08;97860.81;;;8.46;83.94
9822;BME280;4950;46.042;14.472;2023-04-22T02:02:35;97849.34;;;8.49;84.32
9822;BME280;4950;46.042;14.472;2023-04-22T02:05:03;97852.91;;;8.48;84.00
9822;BME280;4950;46.042;14.472;2023-04-22T02:07:30;97852.91;;;8.48;83.79
9822;BME280;4950;46.042;14.472;2023-04-22T02:09:57;97853.22;;;8.45;83.82
9822;BME280;4950;46.042;14.472;2023-04-22T02:12:23;97851.78;;;8.42;84.32
9822;BME280;4950;46.042;14.472;2023-04-22T02:14:51;97847.03;;;8.38;83.75
9822;BME280;4950;46.042;14.472;2023-04-22T02:17:18;97855.28;;;8.33;84.34
9822;BME280;4950;46.042;14.472;2023-04-22T02:19:46;97842.50;;;8.31;84.57
9822;BME280;4950;46.042;14.472;2023-04-22T02:22:13;97837.50;;;8.30;84.64
9822;BME280;4950;46.042;14.472;2023-04-22T02:24:40;97839.28;;;8.29;84.51
9822;BME280;4950;46.042;14.472;2023-04-22T02:27:07;97835.09;;;8.28;84.01
9822;BME280;4950;46.042;14.472;2023-04-22T02:29:34;97837.97;;;8.25;84.56
9822;BME280;4950;46.042;14.472;2023-04-22T02:32:02;97843.78;;;8.27;84.07
9822;BME280;4950;46.042;14.472;2023-04-22T02:34:28;97841.84;;;8.29;83.87
9822;BME280;4950;46.042;14.472;2023-04-22T02:36:55;97837.66;;;8.28;83.78
9822;BME280;4950;46.042;14.472;2023-04-22T02:39:22;97836.69;;;8.29;83.67
9822;BME280;4950;46.042;14.472;2023-04-22T02:41:48;97844.78;;;8.26;83.66
9822;BME280;4950;46.042;14.472;2023-04-22T02:44:15;97834.91;;;8.22;83.73
9822;BME280;4950;46.042;14.472;2023-04-22T02:46:42;97841.38;;;8.18;84.80
9822;BME280;4950;46.042;14.472;2023-04-22T02:49:10;97840.25;;;8.20;84.63
9822;BME280;4950;46.042;14.472;2023-04-22T02:51:37;97848.31;;;8.17;85.72
9822;BME280;4950;46.042;14.472;2023-04-22T02:54:04;97853.66;;;8.16;85.69
9822;BME280;4950;46.042;14.472;2023-04-22T02:56:30;97838.94;;;8.16;86.31
9822;BME280;4950;46.042;14.472;2023-04-22T02:58:57;97843.78;;;8.19;86.91
9822;BME280;4950;46.042;14.472;2023-04-22T03:01:24;97836.84;;;8.20;86.77
9822;BME280;4950;46.042;14.472;2023-04-22T03:03:50;97849.28;;;8.16;86.51
9822;BME280;4950;46.042;14.472;2023-04-22T03:06:18;97841.69;;;8.15;86.94
9822;BME280;4950;46.042;14.472;2023-04-22T03:08:45;97840.56;;;8.17;87.75
9822;BME280;4950;46.042;14.472;2023-04-22T03:11:12;97833.09;;;8.14;87.86
9822;BME280;4950;46.042;14.472;2023-04-22T03:13:39;97839.25;;;8.13;87.26
9822;BME280;4950;46.042;14.472;2023-04-22T03:16:06;97846.38;;;8.03;87.85
9822;BME280;4950;46.042;14.472;2023-04-22T03:18:32;97838.41;;;7.96;87.77
9822;BME280;4950;46.042;14.472;2023-04-22T03:20:59;97836.47;;;7.90;87.90
9822;BME280;4950;46.042;14.472;2023-04-22T03:23:27;97840.63;;;7.83;88.43
9822;BME280;4950;46.042;14.472;2023-04-22T03:25:54;97842.75;;;7.79;88.56
9822;BME280;4950;46.042;14.472;2023-04-22T03:28:20;97841.94;;;7.79;89.88
9822;BME280;4950;46.042;14.472;2023-04-22T03:30:47;97848.72;;;7.80;89.83
9822;BME280;4950;46.042;14.472;2023-04-22T03:33:14;97851.16;;;7.81;89.57
9822;BME280;4950;46.042;14.472;2023-04-22T03:35:41;97855.19;;;7.84;89.72
9822;BME280;4950;46.042;14.472;2023-04-22T03:38:07;97849.69;;;7.87;89.58
9822;BME280;4950;46.042;14.472;2023-04-22T03:40:35;97853.09;;;7.87;89.15
9822;BME280;4950;46.042;14.472;2023-04-22T03:43:02;97857.56;;;7.69;89.85
9822;BME280;4950;46.042;14.472;2023-04-22T03:45:29;97854.19;;;7.68;90.56
9822;BME280;4950;46.042;14.472;2023-04-22T03:47:55;97859.84;;;7.72;90.17
9822;BME280;4950;46.042;14.472;2023-04-22T03:50:22;97855.31;;;7.66;89.16
9822;BME280;4950;46.042;14.472;2023-04-22T03:52:49;97853.66;;;7.65;89.93
9822;BME280;4950;46.042;14.472;2023-04-22T03:55:15;97855.13;;;7.67;89.74
9822;BME280;4950;46.042;14.472;2023-04-22T03:57:43;97851.75;;;7.67;89.94
9822;BME280;4950;46.042;14.472;2023-04-22T04:00:11;97853.88;;;7.71;90.70
9822;BME280;4950;46.042;14.472;2023-04-22T04:02:38;97855.00;;;7.77;90.91
9822;BME280;4950;46.042;14.472;2023-04-22T04:05:05;97847.59;;;7.82;90.80
9822;BME280;4950;46.042;14.472;2023-04-22T04:07:33;97855.19;;;7.84;91.01
9822;BME280;4950;46.042;14.472;2023-04-22T04:10:00;97849.69;;;7.79;90.53
9822;BME280;4950;46.042;14.472;2023-04-22T04:12:27;97854.03;;;7.70;91.26
9822;BME280;4950;46.042;14.472;2023-04-22T04:14:55;97852.09;;;7.72;91.06
9822;BME280;4950;46.042;14.472;2023-04-22T04:17:21;97856.59;;;7.70;91.60
9822;BME280;4950;46.042;14.472;2023-04-22T04:19:50;97862.06;;;7.67;91.28
9822;BME280;4950;46.042;14.472;2023-04-22T04:22:17;97858.00;;;7.56;90.99
9822;BME280;4950;46.042;14.472;2023-04-22T04:24:43;97854.59;;;7.56;91.91
9822;BME280;4950;46.042;14.472;2023-04-22T04:27:11;97855.94;;;7.60;91.73
9822;BME280;4950;46.042;14.472;2023-04-22T04:29:38;97844.94;;;7.58;91.41
9822;BME280;4950;46.042;14.472;2023-04-22T04:32:07;97851.34;;;7.54;91.48
9822;BME280;4950;46.042;14.472;2023-04-22T04:34:34;97859.31;;;7.60;92.12
9822;BME280;4950;46.042;14.472;2023-04-22T04:37:01;97864.34;;;7.62;91.50
9822;BME280;4950;46.042;14.472;2023-04-22T04:39:27;97864.63;;;7.59;91.84
9822;BME280;4950;46.042;14.472;2023-04-22T04:41:55;97864.63;;;7.59;91.76
9822;BME280;4950;46.042;14.472;2023-04-22T04:44:23;97870.94;;;7.56;92.13
9822;BME280;4950;46.042;14.472;2023-04-22T04:46:50;97869.44;;;7.54;92.52
9822;BME280;4950;46.042;14.472;2023-04-22T04:49:20;97873.94;;;7.51;92.70
9822;BME280;4950;46.042;14.472;2023-04-22T04:51:47;97872.53;;;7.57;92.55
9822;BME280;4950;46.042;14.472;2023-04-22T04:54:14;97882.09;;;7.65;92.47
9822;BME280;4950;46.042;14.472;2023-04-22T04:56:41;97882.25;;;7.63;92.75
9822;BME280;4950;46.042;14.472;2023-04-22T04:59:08;97881.09;;;7.58;92.55
9822;BME280;4950;46.042;14.472;2023-04-22T05:01:34;97877.19;;;7.54;92.22
9822;BME280;4950;46.042;14.472;2023-04-22T05:04:01;97877.53;;;7.59;93.30
9822;BME280;4950;46.042;14.472;2023-04-22T05:06:29;97878.56;;;7.66;92.86
9822;BME280;4950;46.042;14.472;2023-04-22T05:08:57;97879.66;;;7.63;92.33
9822;BME280;4950;46.042;14.472;2023-04-22T05:11:23;97878.47;;;7.49;93.07
9822;BME280;4950;46.042;14.472;2023-04-22T05:13:50;97879.13;;;7.51;93.59
9822;BME280;4950;46.042;14.472;2023-04-22T05:16:17;97881.09;;;7.58;93.56
9822;BME280;4950;46.042;14.472;2023-04-22T05:18:44;97880.63;;;7.62;93.17
9822;BME280;4950;46.042;14.472;2023-04-22T05:21:11;97891.91;;;7.61;93.26
9822;BME280;4950;46.042;14.472;2023-04-22T05:23:39;97885.00;;;7.62;93.29
9822;BME280;4950;46.042;14.472;2023-04-22T05:26:05;97877.25;;;7.62;92.97
9822;BME280;4950;46.042;14.472;2023-04-22T05:28:32;97881.59;;;7.61;93.59
9822;BME280;4950;46.042;14.472;2023-04-22T05:30:59;97880.44;;;7.56;93.25
9822;BME280;4950;46.042;14.472;2023-04-22T05:33:26;97887.88;;;7.59;93.82
9822;BME280;4950;46.042;14.472;2023-04-22T05:35:52;97883.47;;;7.51;93.59
9822;BME280;4950;46.042;14.472;2023-04-22T05:38:19;97877.53;;;7.59;93.73
9822;BME280;4950;46.042;14.472;2023-04-22T05:40:47;97888.88;;;7.66;93.14
9822;BME280;4950;46.042;14.472;2023-04-22T05:43:14;97879.84;;;7.62;93.23
9822;BME280;4950;46.042;14.472;2023-04-22T05:45:40;97882.72;;;7.59;93.59
9822;BME280;4950;46.042;14.472;2023-04-22T05:48:07;97882.97;;;7.47;94.30
9822;BME280;4950;46.042;14.472;2023-04-22T05:50:34;97891.38;;;7.49;94.45
9822;BME280;4950;46.042;14.472;2023-04-22T05:53:01;97890.28;;;7.52;94.44
9822;BME280;4950;46.042;14.472;2023-04-22T05:55:27;97891.25;;;7.59;94.38
9822;BME280;4950;46.042;14.472;2023-04-22T05:57:55;97899.22;;;7.66;93.70
9822;BME280;4950;46.042;14.472;2023-04-22T06:00:22;97897.94;;;7.70;93.37
9822;BME280;4950;46.042;14.472;2023-04-22T06:02:49;97892.75;;;7.62;93.19
9822;BME280;4950;46.042;14.472;2023-04-22T06:05:16;97896.78;;;7.64;93.80
9822;BME280;4950;46.042;14.472;2023-04-22T06:07:42;97895.34;;;7.62;94.03
9822;BME280;4950;46.042;14.472;2023-04-22T06:10:09;97896.63;;;7.58;93.89
9822;BME280;4950;46.042;14.472;2023-04-22T06:12:36;97901.78;;;7.58;93.59
9822;BME280;4950;46.042;14.472;2023-04-22T06:15:05;97896.00;;;7.64;93.54
9822;BME280;4950;46.042;14.472;2023-04-22T06:17:32;97891.28;;;7.67;93.55
9822;BME280;4950;46.042;14.472;2023-04-22T06:19:59;97894.34;;;7.63;94.00
9822;BME280;4950;46.042;14.472;2023-04-22T06:22:25;97897.25;;;7.60;94.36
9822;BME280;4950;46.042;14.472;2023-04-22T06:24:52;97895.22;;;7.71;94.26
9822;BME280;4950;46.042;14.472;2023-04-22T06:27:19;97906.03;;;7.75;94.03
9822;BME280;4950;46.042;14.472;2023-04-22T06:29:45;97900.28;;;7.89;94.13
9822;BME280;4950;46.042;14.472;2023-04-22T06:32:13;97894.47;;;7.96;93.69
9822;BME280;4950;46.042;14.472;2023-04-22T06:34:40;97902.59;;;8.09;93.12
9822;BME280;4950;46.042;14.472;2023-04-22T06:37:08;97899.72;;;8.20;92.84
9822;BME280;4950;46.042;14.472;2023-04-22T06:39:34;97903.44;;;8.26;93.05
9822;BME280;4950;46.042;14.472;2023-04-22T06:42:01;97900.06;;;8.34;92.54
9822;BME280;4950;46.042;14.472;2023-04-22T06:44:28;97904.00;;;8.46;92.33
9822;BME280;4950;46.042;14.472;2023-04-22T06:46:55;97906.59;;;8.54;92.12
9822;BME280;4950;46.042;14.472;2023-04-22T06:49:23;97916.44;;;8.59;91.78
9822;BME280;4950;46.042;14.472;2023-04-22T06:51:50;97912.25;;;8.58;92.52
9822;BME280;4950;46.042;14.472;2023-04-22T06:54:17;97914.34;;;8.62;93.48
9822;BME280;4950;46.042;14.472;2023-04-22T06:56:43;97917.59;;;8.64;92.95
9822;BME280;4950;46.042;14.472;2023-04-22T06:59:10;97914.84;;;8.74;93.37
9822;BME280;4950;46.042;14.472;2023-04-22T07:01:37;97912.44;;;8.81;93.41
9822;BME280;4950;46.042;14.472;2023-04-22T07:04:03;97910.78;;;8.96;92.59
9822;BME280;4950;46.042;14.472;2023-04-22T07:06:32;97906.91;;;9.08;90.52
9822;BME280;4950;46.042;14.472;2023-04-22T07:08:58;97914.03;;;9.06;90.24
9822;BME280;4950;46.042;14.472;2023-04-22T07:11:25;97906.59;;;9.03;91.17
9822;BME280;4950;46.042;14.472;2023-04-22T07:13:52;97906.28;;;9.06;91.09
9822;BME280;4950;46.042;14.472;2023-04-22T07:16:19;97905.44;;;9.14;91.18
9822;BME280;4950;46.042;14.472;2023-04-22T07:18:45;97898.81;;;9.20;91.21
9822;BME280;4950;46.042;14.472;2023-04-22T07:21:12;97891.97;;;9.27;90.71
9822;BME280;4950;46.042;14.472;2023-04-22T07:23:40;97894.72;;;9.34;90.38
9822;BME280;4950;46.042;14.472;2023-04-22T07:26:07;97882.25;;;9.29;90.80
9822;BME280;4950;46.042;14.472;2023-04-22T07:28:33;97883.38;;;9.35;91.32
9822;BME280;4950;46.042;14.472;2023-04-22T07:31:01;97885.94;;;9.51;91.11
9822;BME280;4950;46.042;14.472;2023-04-22T07:33:28;97883.78;;;9.63;90.02
9822;BME280;4950;46.042;14.472;2023-04-22T07:35:54;97881.31;;;9.69;90.31
9822;BME280;4950;46.042;14.472;2023-04-22T07:38:21;97876.09;;;9.78;90.40
9822;BME280;4950;46.042;14.472;2023-04-22T07:40:49;97875.25;;;9.85;90.34
9822;BME280;4950;46.042;14.472;2023-04-22T07:43:16;97861.28;;;9.95;90.10
9822;BME280;4950;46.042;14.472;2023-04-22T07:45:43;97865.78;;;10.01;89.92
9822;BME280;4950;46.042;14.472;2023-04-22T07:48:10;97862.16;;;10.10;89.69
9822;BME280;4950;46.042;14.472;2023-04-22T07:50:36;97867.59;;;10.23;89.30
9822;BME280;4950;46.042;14.472;2023-04-22T07:53:03;97867.09;;;10.28;88.68
9822;BME280;4950;46.042;14.472;2023-04-22T07:55:30;97873.22;;;10.35;87.89
9822;BME280;4950;46.042;14.472;2023-04-22T07:57:58;97873.63;;;10.47;88.49
9822;BME280;4950;46.042;14.472;2023-04-22T08:00:25;97864.63;;;10.58;87.96
9822;BME280;4950;46.042;14.472;2023-04-22T08:02:52;97874.50;;;10.62;86.25
9822;BME280;4950;46.042;14.472;2023-04-22T08:05:18;97870.66;;;10.73;86.08
9822;BME280;4950;46.042;14.472;2023-04-22T08:07:45;97867.66;;;10.84;85.87
9822;BME280;4950;46.042;14.472;2023-04-22T08:10:12;97868.03;;;10.96;86.25
9822;BME280;4950;46.042;14.472;2023-04-22T08:12:38;97865.19;;;11.06;86.06
9822;BME280;4950;46.042;14.472;2023-04-22T08:15:07;97864.03;;;11.38;84.87
9822;BME280;4950;46.042;14.472;2023-04-22T08:17:34;97862.16;;;11.47;82.86
9822;BME280;4950;46.042;14.472;2023-04-22T08:20:01;97864.47;;;11.57;83.13
9822;BME280;4950;46.042;14.472;2023-04-22T08:22:29;97864.75;;;11.62;82.16
9822;BME280;4950;46.042;14.472;2023-04-22T08:24:56;97864.66;;;11.70;82.34
9822;BME280;4950;46.042;14.472;2023-04-22T08:27:23;97860.50;;;11.76;81.96
9822;BME280;4950;46.042;14.472;2023-04-22T08:29:49;97860.31;;;11.92;81.99
9822;BME280;4950;46.042;14.472;2023-04-22T08:32:17;97859.28;;;12.08;80.87
9822;BME280;4950;46.042;14.472;2023-04-22T08:34:44;97857.75;;;12.14;80.44
9822;BME280;4950;46.042;14.472;2023-04-22T08:37:11;97854.41;;;12.20;80.25
9822;BME280;4950;46.042;14.472;2023-04-22T08:39:38;97852.13;;;12.32;79.63
9822;BME280;4950;46.042;14.472;2023-04-22T08:42:05;97851.81;;;12.41;78.73
9822;BME280;4950;46.042;14.472;2023-04-22T08:44:34;97846.09;;;12.53;78.82
9822;BME280;4950;46.042;14.472;2023-04-22T08:47:02;97848.25;;;12.71;78.95
9822;BME280;4950;46.042;14.472;2023-04-22T08:49:30;97840.91;;;12.81;78.61
9822;BME280;4950;46.042;14.472;2023-04-22T08:51:57;97840.47;;;12.99;78.94
9822;BME280;4950;46.042;14.472;2023-04-22T08:54:24;97841.38;;;13.19;77.24
9822;BME280;4950;46.042;14.472;2023-04-22T08:56:51;97843.72;;;13.36;76.54
9822;BME280;4950;46.042;14.472;2023-04-22T08:59:21;97834.34;;;13.48;75.10
9822;BME280;4950;46.042;14.472;2023-04-22T09:01:48;97834.81;;;13.65;73.51
9822;BME280;4950;46.042;14.472;2023-04-22T09:04:18;97840.47;;;13.75;72.44
9822;BME280;4950;46.042;14.472;2023-04-22T09:06:46;97833.88;;;13.86;72.01
9822;BME280;4950;46.042;14.472;2023-04-22T09:09:12;97833.72;;;13.94;72.38
9822;BME280;4950;46.042;14.472;2023-04-22T09:11:40;97827.53;;;14.09;73.30
9822;BME280;4950;46.042;14.472;2023-04-22T09:14:06;97821.13;;;14.18;72.31
9822;BME280;4950;46.042;14.472;2023-04-22T09:16:39;97822.75;;;14.26;72.00
9822;BME280;4950;46.042;14.472;2023-04-22T09:19:10;97815.09;;;14.44;70.59
9822;BME280;4950;46.042;14.472;2023-04-22T09:21:38;97812.28;;;14.52;69.80
9822;BME280;4950;46.042;14.472;2023-04-22T09:24:08;97813.34;;;14.71;67.59
9822;BME280;4950;46.042;14.472;2023-04-22T09:26:38;97815.31;;;14.89;66.60
9822;BME280;4950;46.042;14.472;2023-04-22T09:29:06;97813.47;;;15.03;65.34
9822;BME280;4950;46.042;14.472;2023-04-22T09:31:34;97806.22;;;15.18;64.15
9822;BME280;4950;46.042;14.472;2023-04-22T09:34:03;97802.94;;;15.36;63.70
9822;BME280;4950;46.042;14.472;2023-04-22T09:36:30;97801.06;;;15.57;60.85
9822;BME280;4950;46.042;14.472;2023-04-22T09:39:00;97788.31;;;15.74;58.60
9822;BME280;4950;46.042;14.472;2023-04-22T09:41:31;97793.69;;;15.86;58.03
9822;BME280;4950;46.042;14.472;2023-04-22T09:43:59;97788.03;;;15.89;59.56
9822;BME280;4950;46.042;14.472;2023-04-22T09:46:28;97785.34;;;16.02;57.47
9822;BME280;4950;46.042;14.472;2023-04-22T09:48:56;97780.50;;;16.06;59.00
9822;BME280;4950;46.042;14.472;2023-04-22T09:51:24;97780.22;;;16.14;58.31
9822;BME280;4950;46.042;14.472;2023-04-22T09:53:59;97777.72;;;16.26;57.25
9822;BME280;4950;46.042;14.472;2023-04-22T09:56:46;97771.25;;;16.28;57.51
9822;BME280;4950;46.042;14.472;2023-04-22T09:59:16;97766.56;;;16.37;56.66
9822;BME280;4950;46.042;14.472;2023-04-22T10:01:44;97763.47;;;16.47;57.41
9822;BME280;4950;46.042;14.472;2023-04-22T10:04:11;97763.47;;;16.65;56.62
9822;BME280;4950;46.042;14.472;2023-04-22T10:06:39;97755.56;;;16.72;56.11
9822;BME280;4950;46.042;14.472;2023-04-22T10:09:06;97760.69;;;16.85;56.14
9822;BME280;4950;46.042;14.472;2023-04-22T10:11:34;97749.50;;;16.96;56.63
9822;BME280;4950;46.042;14.472;2023-04-22T10:14:03;97744.69;;;17.12;57.36
9822;BME280;4950;46.042;14.472;2023-04-22T10:16:31;97749.25;;;17.35;56.80
9822;BME280;4950;46.042;14.472;2023-04-22T10:19:01;97748.63;;;17.51;53.06
9822;BME280;4950;46.042;14.472;2023-04-22T10:21:30;97743.78;;;17.67;53.82
9822;BME280;4950;46.042;14.472;2023-04-22T10:23:58;97735.53;;;17.82;54.73
9822;BME280;4950;46.042;14.472;2023-04-22T10:26:38;97732.72;;;17.95;51.60
9822;BME280;4950;46.042;14.472;2023-04-22T10:29:07;97731.34;;;17.92;49.96
9822;BME280;4950;46.042;14.472;2023-04-22T10:31:36;97733.22;;;18.15;51.31
9822;BME280;4950;46.042;14.472;2023-04-22T10:34:08;97724.19;;;18.23;52.76
9822;BME280;4950;46.042;14.472;2023-04-22T10:36:51;97721.22;;;18.43;50.98
9822;BME280;4950;46.042;14.472;2023-04-22T10:39:18;97719.50;;;18.61;50.23
9822;BME280;4950;46.042;14.472;2023-04-22T10:41:51;97719.97;;;18.69;50.12
9822;BME280;4950;46.042;14.472;2023-04-22T10:44:20;97711.88;;;18.83;49.40
9822;BME280;4950;46.042;14.472;2023-04-22T10:46:57;97715.16;;;18.90;47.95
9822;BME280;4950;46.042;14.472;2023-04-22T10:49:25;97697.06;;;19.05;47.65
9822;BME280;4950;46.042;14.472;2023-04-22T10:51:55;97700.44;;;19.18;45.98
9822;BME280;4950;46.042;14.472;2023-04-22T10:54:57;97700.56;;;19.23;45.52
9822;BME280;4950;46.042;14.472;2023-04-22T10:57:30;97703.66;;;19.48;43.16
9822;BME280;4950;46.042;14.472;2023-04-22T11:00:24;97692.78;;;19.45;44.59
9822;BME280;4950;46.042;14.472;2023-04-22T11:02:52;97684.75;;;19.51;44.95
9822;BME280;4950;46.042;14.472;2023-04-22T11:05:21;97684.16;;;19.61;45.00
9822;BME280;4950;46.042;14.472;2023-04-22T11:07:50;97685.69;;;19.74;44.71
9822;BME280;4950;46.042;14.472;2023-04-22T11:10:38;97690.09;;;19.85;44.59
9822;BME280;4950;46.042;14.472;2023-04-22T11:13:09;97689.69;;;19.93;43.85
9822;BME280;4950;46.042;14.472;2023-04-22T11:15:40;97681.81;;;20.10;43.39
9822;BME280;4950;46.042;14.472;2023-04-22T11:18:08;97683.06;;;20.25;45.68
9822;BME280;4950;46.042;14.472;2023-04-22T11:20:36;97682.50;;;20.23;42.23
9822;BME280;4950;46.042;14.472;2023-04-22T11:23:03;97676.63;;;20.16;41.89
9822;BME280;4950;46.042;14.472;2023-04-22T11:25:29;97675.34;;;20.18;41.94
9822;BME280;4950;46.042;14.472;2023-04-22T11:27:57;97676.13;;;20.19;41.03
9822;BME280;4950;46.042;14.472;2023-04-22T11:30:24;97667.56;;;20.28;42.60
9822;BME280;4950;46.042;14.472;2023-04-22T11:32:54;97666.50;;;20.46;41.45
9822;BME280;4950;46.042;14.472;2023-04-22T11:35:24;97661.72;;;20.43;40.36
9822;BME280;4950;46.042;14.472;2023-04-22T11:37:53;97665.06;;;20.39;41.15
9822;BME280;4950;46.042;14.472;2023-04-22T11:40:20;97667.56;;;20.28;39.75
9822;BME280;4950;46.042;14.472;2023-04-22T11:42:49;97660.28;;;20.36;41.52
9822;BME280;4950;46.042;14.472;2023-04-22T11:45:17;97652.50;;;20.46;42.14
9822;BME280;4950;46.042;14.472;2023-04-22T11:47:43;97658.47;;;20.58;41.46
9822;BME280;4950;46.042;14.472;2023-04-22T11:50:13;97654.78;;;20.76;40.74
9822;BME280;4950;46.042;14.472;2023-04-22T11:52:45;97652.25;;;20.86;40.89
9822;BME280;4950;46.042;14.472;2023-04-22T11:55:12;97647.72;;;21.04;39.29
9822;BME280;4950;46.042;14.472;2023-04-22T11:57:40;97647.75;;;21.09;38.62
9822;BME280;4950;46.042;14.472;2023-04-22T12:00:11;97646.78;;;21.15;38.86
9822;BME280;4950;46.042;14.472;2023-04-22T12:02:38;97644.78;;;21.27;39.04
9822;BME280;4950;46.042;14.472;2023-04-22T12:05:08;97643.28;;;21.37;39.11
9822;BME280;4950;46.042;14.472;2023-04-22T12:07:37;97634.53;;;21.31;38.57
9822;BME280;4950;46.042;14.472;2023-04-22T12:10:05;97628.88;;;21.44;38.98
9822;BME280;4950;46.042;14.472;2023-04-22T12:12:32;97632.06;;;21.46;39.02
9822;BME280;4950;46.042;14.472;2023-04-22T12:15:10;97624.22;;;21.57;38.28
9822;BME280;4950;46.042;14.472;2023-04-22T12:17:39;97625.34;;;21.66;38.75
9822;BME280;4950;46.042;14.472;2023-04-22T12:20:10;97616.41;;;21.72;38.60
9822;BME280;4950;46.042;14.472;2023-04-22T12:22:39;97632.28;;;21.77;38.52
9822;BME280;4950;46.042;14.472;2023-04-22T12:25:08;97623.09;;;21.80;38.91
9822;BME280;4950;46.042;14.472;2023-04-22T12:27:34;97623.38;;;21.83;38.56
9822;BME280;4950;46.042;14.472;2023-04-22T12:30:02;97610.72;;;21.91;38.73
9822;BME280;4950;46.042;14.472;2023-04-22T12:32:29;97612.63;;;21.95;38.99
9822;BME280;4950;46.042;14.472;2023-04-22T12:34:56;97607.41;;;22.05;39.95
9822;BME280;4950;46.042;14.472;2023-04-22T12:37:22;97604.50;;;22.12;40.23
9822;BME280;4950;46.042;14.472;2023-04-22T12:39:50;97597.44;;;22.23;37.92
9822;BME280;4950;46.042;14.472;2023-04-22T12:42:17;97592.22;;;22.33;38.41
9822;BME280;4950;46.042;14.472;2023-04-22T12:44:44;97601.25;;;22.37;35.62
9822;BME280;4950;46.042;14.472;2023-04-22T12:47:11;97597.94;;;22.15;35.29
9822;BME280;4950;46.042;14.472;2023-04-22T12:49:38;97587.28;;;22.04;35.57
9822;BME280;4950;46.042;14.472;2023-04-22T12:52:05;97592.03;;;22.02;34.68
9822;BME280;4950;46.042;14.472;2023-04-22T12:54:32;97584.34;;;21.96;35.67
9822;BME280;4950;46.042;14.472;2023-04-22T12:57:00;97571.13;;;21.96;35.76
9822;BME280;4950;46.042;14.472;2023-04-22T12:59:28;97579.09;;;22.06;36.87
9822;BME280;4950;46.042;14.472;2023-04-22T13:01:54;97575.13;;;22.03;34.19
9822;BME280;4950;46.042;14.472;2023-04-22T13:04:21;97581.16;;;21.99;34.08
9822;BME280;4950;46.042;14.472;2023-04-22T13:06:49;97578.28;;;22.00;35.54
9822;BME280;4950;46.042;14.472;2023-04-22T13:09:21;97578.59;;;22.14;34.65
9822;BME280;4950;46.042;14.472;2023-04-22T13:11:49;97569.75;;;22.31;35.23
9822;BME280;4950;46.042;14.472;2023-04-22T13:14:18;97568.47;;;22.43;35.72
9822;BME280;4950;46.042;14.472;2023-04-22T13:16:44;97561.63;;;22.53;34.27
9822;BME280;4950;46.042;14.472;2023-04-22T13:19:12;97559.50;;;22.55;34.28
9822;BME280;4950;46.042;14.472;2023-04-22T13:21:40;97559.00;;;22.58;33.94